»·PEaware :: DAL2189 KSLC-KPDX

DAL2189 :: KSLC-KPDX

FLIGHT INFORMATION

Flight Status: Arrived
Operator:
Delta Air Lines
More flights by this operator :: More flights under this callsign
Pilot: Joe P. (13940)
Aircraft: MCDONNELL-DOUGLAS MD-82
(MD82)
More flights by this aircraft type
Origin: KSLC Salt Lake City Intl
United States
Destination: KPDX Portland Intl
United States
More flights between these airports :: More routes between these airports
Route: +TWF4 TWF BOI BKE JOTBA HHOOD4
File this flight plan on PilotEdge
Remarks: SEL / ABCD KSEA -PBN / B3B4B5D3D4 DOF / 180506 REG / N904DL EET / KZSE0058
Altitude:
(Current/Filed)
360ft
Speed:
(Current/Filed)
439kts
Departed: 06-May-18 07:55 AM
Arrived: 06-May-18 09:28 AM
Distance/Time
Traveled:
546nm/1:32
Distance/Time
To Go:
Arrived

Flight Plot

Page will automatically refresh every two minutes.

Flight plan parsing failed; only flown route is shown


Map Options




Map Legend


Flown Route
Filed Route
Departure Airport
Arrival Airport
Navaid (VOR, NDB)
Fix

Horizontal Profiles

Position Reports

Time Latitude Longitude Heading Altitude Ground
Speed
06-May-18 06:33 40.785586 -111.978056 231 4236ft 0kts
06-May-18 06:34 40.785586 -111.978056 231 4236ft 0kts
06-May-18 06:35 40.785586 -111.978056 231 4236ft 0kts
06-May-18 06:36 40.785586 -111.978056 231 4236ft 0kts
06-May-18 06:37 40.785586 -111.978056 231 4236ft 0kts
06-May-18 06:38 40.785586 -111.978056 231 4236ft 0kts
06-May-18 06:39 40.785586 -111.978056 231 4236ft 0kts
06-May-18 06:40 40.785586 -111.978056 231 4236ft 0kts
06-May-18 06:41 40.785586 -111.978056 231 4236ft 0kts
06-May-18 06:42 40.785586 -111.978056 231 4236ft 0kts
06-May-18 06:43 40.785586 -111.978056 231 4236ft 0kts
06-May-18 06:44 40.785586 -111.978056 231 4236ft 0kts
06-May-18 06:45 40.785586 -111.978056 231 4236ft 0kts
06-May-18 06:46 40.785586 -111.978056 231 4236ft 0kts
06-May-18 06:47 40.785586 -111.978056 231 4236ft 0kts
06-May-18 06:48 40.785586 -111.978056 231 4236ft 0kts
06-May-18 06:49 40.785586 -111.978056 231 4236ft 0kts
06-May-18 06:50 40.785586 -111.978056 231 4236ft 0kts
06-May-18 06:51 40.785586 -111.978056 231 4236ft 0kts
06-May-18 06:52 40.785586 -111.978056 231 4236ft 0kts
06-May-18 06:53 40.785586 -111.978056 231 4236ft 0kts
06-May-18 06:54 40.785586 -111.978056 231 4236ft 0kts
06-May-18 06:55 40.785586 -111.978056 231 4236ft 0kts
06-May-18 06:56 40.785586 -111.978056 231 4236ft 0kts
06-May-18 06:57 40.785586 -111.978056 231 4236ft 0kts
06-May-18 06:58 40.785586 -111.978056 231 4236ft 0kts
06-May-18 06:59 40.785586 -111.978056 231 4236ft 0kts
06-May-18 07:00 40.785586 -111.978056 231 4236ft 0kts
06-May-18 07:01 40.785586 -111.978056 231 4236ft 0kts
06-May-18 07:02 40.785586 -111.978056 231 4236ft 0kts
06-May-18 07:03 40.785586 -111.978056 231 4236ft 0kts
06-May-18 07:04 40.785586 -111.978056 231 4236ft 0kts
06-May-18 07:05 40.785586 -111.978056 231 4236ft 0kts
06-May-18 07:06 40.785586 -111.978056 231 4236ft 0kts
06-May-18 07:07 40.785586 -111.978056 231 4236ft 0kts
06-May-18 07:08 40.785586 -111.978056 231 4236ft 0kts
06-May-18 07:09 40.785586 -111.978056 231 4236ft 0kts
06-May-18 07:10 40.785586 -111.978056 231 4236ft 0kts
06-May-18 07:11 40.785586 -111.978056 231 4236ft 0kts
06-May-18 07:12 40.785586 -111.978056 231 4236ft 0kts
06-May-18 07:13 40.785586 -111.978056 231 4236ft 0kts
06-May-18 07:14 40.785586 -111.978056 231 4236ft 0kts
06-May-18 07:15 40.785586 -111.978056 231 4236ft 0kts
06-May-18 07:16 40.785586 -111.978056 231 4236ft 0kts
06-May-18 07:17 40.785586 -111.978056 231 4236ft 0kts
06-May-18 07:17 40.785586 -111.978056 231 4236ft 0kts
06-May-18 07:18 40.785586 -111.978056 231 4236ft 0kts
06-May-18 07:19 40.785586 -111.978056 231 4236ft 0kts
06-May-18 07:20 40.785586 -111.978056 231 4236ft 0kts
06-May-18 07:21 40.785586 -111.978056 231 4236ft 0kts
06-May-18 07:23 40.785586 -111.978056 231 4236ft 0kts
06-May-18 07:24 40.785586 -111.978056 231 4236ft 0kts
06-May-18 07:25 40.785586 -111.978056 231 4236ft 0kts
06-May-18 07:25 40.785586 -111.978056 231 4236ft 0kts
06-May-18 07:26 40.785586 -111.978056 231 4236ft 0kts
06-May-18 07:27 40.785586 -111.978056 231 4236ft 0kts
06-May-18 07:28 40.785586 -111.978056 231 4236ft 0kts
06-May-18 07:29 40.785586 -111.978056 231 4236ft 0kts
06-May-18 07:30 40.785586 -111.978056 231 4236ft 0kts
06-May-18 07:31 40.785586 -111.978056 231 4236ft 0kts
06-May-18 07:32 40.785586 -111.978056 231 4236ft 0kts
06-May-18 07:33 40.785586 -111.978056 231 4236ft 0kts
06-May-18 07:34 40.785586 -111.978056 231 4236ft 0kts
06-May-18 07:35 40.785586 -111.978056 231 4236ft 0kts
06-May-18 07:36 40.785586 -111.978056 231 4236ft 0kts
06-May-18 07:37 40.785586 -111.978056 231 4236ft 0kts
06-May-18 07:38 40.785586 -111.978056 231 4236ft 0kts
06-May-18 07:39 40.785586 -111.978056 231 4236ft 0kts
06-May-18 07:40 40.785586 -111.978056 231 4236ft 0kts
06-May-18 07:41 40.785593 -111.978045 231 4236ft 1kts
06-May-18 07:42 40.785852 -111.977328 260 4236ft 2kts
06-May-18 07:43 40.785728 -111.976351 297 4236ft 0kts
06-May-18 07:44 40.785728 -111.976351 297 4236ft 0kts
06-May-18 07:45 40.785728 -111.976351 297 4236ft 0kts
06-May-18 07:46 40.785728 -111.976351 297 4236ft 0kts
06-May-18 07:47 40.785935 -111.976576 333 4236ft 6kts
06-May-18 07:48 40.789818 -111.977126 354 4236ft 17kts
06-May-18 07:49 40.795105 -111.977770 355 4236ft 24kts
06-May-18 07:50 40.802917 -111.978589 356 4236ft 9kts
06-May-18 07:51 40.807024 -111.979109 3 4236ft 11kts
06-May-18 07:52 40.807560 -111.978504 78 4236ft 0kts
06-May-18 07:53 40.806820 -111.976830 170 4236ft 3kts
06-May-18 07:54 40.794673 -111.975346 175 4236ft 127kts
06-May-18 07:55 40.749444 -111.974949 207 5955ft 180kts
06-May-18 07:57 40.730651 -112.054675 266 6535ft 278kts
06-May-18 07:58 40.772447 -112.141449 303 8814ft 296kts
06-May-18 07:59 40.808374 -112.238820 288 11943ft 291kts
06-May-18 08:00 40.856489 -112.323872 328 14242ft 312kts
06-May-18 08:01 40.937184 -112.371381 335 16129ft 321kts
06-May-18 08:02 41.022460 -112.409774 338 17923ft 327kts
06-May-18 08:03 41.107754 -112.452826 325 19604ft 329kts
06-May-18 08:04 41.184238 -112.521236 318 21187ft 333kts
06-May-18 08:05 41.258579 -112.599038 317 21909ft 363kts
06-May-18 08:06 41.332493 -112.695909 306 23540ft 369kts
06-May-18 08:07 41.400238 -112.797423 306 25642ft 364kts
06-May-18 08:08 41.466290 -112.897328 304 27635ft 355kts
06-May-18 08:09 41.530247 -112.995303 304 29400ft 349kts
06-May-18 08:10 41.594296 -113.092947 303 30901ft 347kts
06-May-18 08:11 41.657267 -113.189545 303 32239ft 344kts
06-May-18 08:12 41.719892 -113.286786 302 33297ft 344kts
06-May-18 08:13 41.783001 -113.383821 302 33942ft 354kts
06-May-18 08:14 41.851062 -113.489975 303 33589ft 388kts
06-May-18 08:15 41.923900 -113.603495 303 33686ft 403kts
06-May-18 08:16 41.996538 -113.717318 303 34439ft 400kts
06-May-18 08:17 42.069051 -113.830588 303 35058ft 399kts
06-May-18 08:18 42.141021 -113.944216 302 35643ft 397kts
06-May-18 08:19 42.212382 -114.057230 302 36099ft 397kts
06-May-18 08:20 42.284776 -114.172210 302 36110ft 399kts
06-May-18 08:21 42.356665 -114.287105 302 36110ft 402kts
06-May-18 08:22 42.428634 -114.402525 302 36109ft 403kts
06-May-18 08:23 42.501668 -114.518445 303 36108ft 404kts
06-May-18 08:24 42.575479 -114.633663 303 36108ft 406kts
06-May-18 08:25 42.650000 -114.748983 303 36107ft 407kts
06-May-18 08:26 42.724630 -114.865443 303 36105ft 408kts
06-May-18 08:27 42.799087 -114.982065 303 36106ft 409kts
06-May-18 08:28 42.873654 -115.099277 302 36099ft 410kts
06-May-18 08:29 42.948535 -115.217467 302 36087ft 411kts
06-May-18 08:30 43.023219 -115.335565 303 36071ft 412kts
06-May-18 08:31 43.098372 -115.454733 303 36049ft 413kts
06-May-18 08:32 43.173412 -115.573682 302 36042ft 414kts
06-May-18 08:33 43.248245 -115.693700 302 36039ft 415kts
06-May-18 08:34 43.323529 -115.814834 302 36038ft 417kts
06-May-18 08:35 43.398740 -115.936242 302 36033ft 418kts
06-May-18 08:36 43.473907 -116.058513 302 36026ft 421kts
06-May-18 08:37 43.549872 -116.181710 305 36019ft 423kts
06-May-18 08:38 43.637174 -116.293274 311 36018ft 429kts
06-May-18 08:39 43.727408 -116.401541 310 36015ft 429kts
06-May-18 08:40 43.816673 -116.511688 310 36020ft 430kts
06-May-18 08:41 43.905800 -116.621571 311 36027ft 429kts
06-May-18 08:42 43.995209 -116.732342 310 36039ft 431kts
06-May-18 08:43 44.085047 -116.843509 311 36040ft 434kts
06-May-18 08:44 44.174588 -116.955567 311 36041ft 435kts
06-May-18 08:45 44.264769 -117.068168 311 36046ft 435kts
06-May-18 08:46 44.354416 -117.181154 311 36054ft 435kts
06-May-18 08:47 44.444232 -117.294696 311 36063ft 434kts
06-May-18 08:48 44.534296 -117.409224 311 36070ft 436kts
06-May-18 08:49 44.624077 -117.523354 311 36075ft 437kts
06-May-18 08:50 44.714095 -117.638579 311 36077ft 437kts
06-May-18 08:51 44.803504 -117.753884 310 36078ft 436kts
06-May-18 08:52 44.856191 -117.899775 281 36081ft 418kts
06-May-18 08:53 44.877668 -118.058472 273 36079ft 412kts
06-May-18 08:54 44.896967 -118.218972 275 36077ft 414kts
06-May-18 08:55 44.918088 -118.379443 275 36078ft 416kts
06-May-18 08:56 44.938870 -118.540725 274 36071ft 418kts
06-May-18 08:57 44.958930 -118.701765 275 36068ft 418kts
06-May-18 08:58 44.979135 -118.863529 275 36067ft 418kts
06-May-18 08:59 44.999291 -119.026198 274 36051ft 420kts
06-May-18 09:00 45.018480 -119.187589 274 36048ft 420kts
06-May-18 09:01 45.037961 -119.351029 274 36054ft 421kts
06-May-18 09:02 45.057414 -119.514396 274 36054ft 422kts
06-May-18 09:03 45.076947 -119.677974 274 36051ft 422kts
06-May-18 09:04 45.095889 -119.842463 274 36048ft 423kts
06-May-18 09:05 45.114691 -120.006603 274 36047ft 424kts
06-May-18 09:06 45.132853 -120.172133 273 36046ft 425kts
06-May-18 09:07 45.148389 -120.337490 274 34791ft 425kts
06-May-18 09:08 45.169086 -120.503854 279 32277ft 436kts
06-May-18 09:09 45.221956 -120.662844 297 29502ft 453kts
06-May-18 09:10 45.282881 -120.815258 293 26821ft 435kts
06-May-18 09:11 45.339552 -120.964212 294 24110ft 421kts
06-May-18 09:12 45.394767 -121.107903 295 21478ft 406kts
06-May-18 09:13 45.441243 -121.250196 284 18667ft 394kts
06-May-18 09:14 45.470020 -121.399456 281 16149ft 369kts
06-May-18 09:15 45.496335 -121.533366 282 14364ft 344kts
06-May-18 09:16 45.521285 -121.661060 284 12402ft 325kts
06-May-18 09:17 45.537288 -121.786627 271 10222ft 317kts
06-May-18 09:18 45.540033 -121.901491 271 8983ft 286kts
06-May-18 09:19 45.543896 -122.011283 273 7371ft 257kts
06-May-18 09:20 45.521796 -122.100122 234 6198ft 226kts
06-May-18 09:21 45.487184 -122.170082 233 5226ft 216kts
06-May-18 09:22 45.478486 -122.246694 285 4318ft 209kts
06-May-18 09:23 45.495575 -122.325818 286 3228ft 199kts
06-May-18 09:24 45.515651 -122.396110 299 2809ft 172kts
06-May-18 09:25 45.538480 -122.451042 298 1779ft 145kts
06-May-18 09:26 45.557258 -122.499196 297 1176ft 138kts
06-May-18 09:27 45.576265 -122.548033 297 409ft 143kts
06-May-18 09:28 45.592963 -122.591042 298 27ft 40kts
06-May-18 09:29 45.594212 -122.595468 233 27ft 0kts
06-May-18 09:30 45.594210 -122.595471 233 27ft 0kts
06-May-18 09:31 45.593733 -122.596202 222 27ft 12kts
06-May-18 09:32 45.591907 -122.594156 117 27ft 5kts
06-May-18 09:33 45.591104 -122.593603 202 27ft 3kts
06-May-18 09:34 45.591089 -122.593613 202 27ft 0kts
06-May-18 09:35 45.591087 -122.593614 202 27ft 0kts
06-May-18 09:36 45.591085 -122.593615 202 27ft 0kts
06-May-18 09:36 45.591085 -122.593615 202 27ft 0kts
06-May-18 09:37 45.591085 -122.593615 202 27ft 0kts
06-May-18 09:38 45.591085 -122.593615 202 27ft 0kts
06-May-18 09:39 45.591085 -122.593615 202 27ft 0kts
06-May-18 09:40 45.591085 -122.593615 202 27ft 0kts
06-May-18 09:42 45.591085 -122.593615 202 27ft 0kts

Navigation Log

Ident Type
Flight plan parsing failed, navigation log unavailable